createdAt,value
2018-07-28T00:00:32.064Z,990.60
2018-07-28T00:01:34.522Z,990.59
2018-07-28T00:02:32.674Z,990.59
2018-07-28T00:03:33.001Z,990.53
2018-07-28T00:04:32.623Z,990.59
2018-07-28T00:05:32.002Z,990.57
2018-07-28T00:06:32.314Z,990.59
2018-07-28T00:07:32.338Z,990.59
2018-07-28T00:08:32.271Z,990.58
2018-07-28T00:09:32.426Z,990.58
2018-07-28T00:10:31.995Z,990.60
2018-07-28T00:11:32.032Z,990.60
2018-07-28T00:12:31.846Z,990.59
2018-07-28T00:13:32.532Z,990.59
2018-07-28T00:14:32.046Z,990.57
2018-07-28T00:15:32.928Z,990.57
2018-07-28T00:16:32.436Z,990.57
2018-07-28T00:17:31.638Z,990.54
2018-07-28T00:18:32.176Z,990.54
2018-07-28T00:19:31.649Z,990.58
2018-07-28T00:20:31.536Z,990.59
2018-07-28T00:21:31.499Z,990.59
2018-07-28T00:22:31.508Z,990.59
2018-07-28T00:23:31.480Z,990.60
2018-07-28T00:24:31.406Z,990.63
2018-07-28T00:25:31.487Z,990.60
2018-07-28T00:26:31.484Z,990.59
2018-07-28T00:27:31.383Z,990.60
2018-07-28T00:28:31.338Z,990.57
2018-07-28T00:29:31.304Z,990.61
2018-07-28T00:30:31.270Z,990.62
2018-07-28T00:31:31.302Z,990.64
2018-07-28T00:32:31.253Z,990.70
2018-07-28T00:33:31.215Z,990.73
2018-07-28T00:34:31.179Z,990.76
2018-07-28T00:35:31.661Z,990.76
2018-07-28T00:36:31.235Z,990.76
2018-07-28T00:37:31.178Z,990.74
2018-07-28T00:38:31.088Z,990.80
2018-07-28T00:39:31.066Z,990.83
2018-07-28T00:40:31.018Z,990.79
2018-07-28T00:41:31.009Z,990.83
2018-07-28T00:42:31.047Z,990.81
2018-07-28T00:43:30.913Z,990.85
2018-07-28T00:44:30.909Z,990.84
2018-07-28T00:45:31.409Z,990.88
2018-07-28T00:46:30.838Z,990.88
2018-07-28T00:47:30.873Z,990.87
2018-07-28T00:48:30.845Z,990.84
2018-07-28T00:49:30.775Z,990.90
2018-07-28T00:50:30.746Z,990.89
2018-07-28T00:51:30.727Z,990.90
2018-07-28T00:52:30.705Z,990.90
2018-07-28T00:53:30.793Z,990.89
2018-07-28T00:54:30.625Z,990.91
2018-07-28T00:55:30.687Z,990.93
2018-07-28T00:56:30.588Z,990.95
2018-07-28T00:57:30.599Z,990.94
2018-07-28T00:58:30.665Z,991.00
2018-07-28T00:59:30.524Z,990.95
2018-07-28T01:00:30.513Z,990.96
2018-07-28T01:01:30.484Z,991.03
2018-07-28T01:02:30.453Z,990.97
2018-07-28T01:03:30.403Z,991.06
2018-07-28T01:04:30.494Z,991.08
2018-07-28T01:05:30.377Z,991.07
2018-07-28T01:06:30.345Z,991.06
2018-07-28T01:07:30.315Z,991.07
2018-07-28T01:08:30.276Z,991.04
2018-07-28T01:09:30.256Z,991.12
2018-07-28T01:10:30.311Z,991.12
2018-07-28T01:11:30.177Z,991.13
2018-07-28T01:12:30.161Z,991.08
2018-07-28T01:13:30.236Z,991.15
2018-07-28T01:14:30.128Z,991.11
2018-07-28T01:15:30.132Z,991.16
2018-07-28T01:16:30.687Z,991.17
2018-07-28T01:17:30.037Z,991.15
2018-07-28T01:18:30.013Z,991.15
2018-07-28T01:19:29.987Z,991.18
2018-07-28T01:20:29.944Z,991.16
2018-07-28T01:21:29.968Z,991.19
2018-07-28T01:22:29.959Z,991.22
2018-07-28T01:23:29.853Z,991.24
2018-07-28T01:24:29.851Z,991.25
2018-07-28T01:25:29.826Z,991.26
2018-07-28T01:26:29.788Z,991.24
2018-07-28T01:27:29.896Z,991.26
2018-07-28T01:28:29.739Z,991.27
2018-07-28T01:29:30.252Z,991.25
2018-07-28T01:30:29.682Z,991.23
2018-07-28T01:31:29.680Z,991.24
2018-07-28T01:32:30.228Z,991.25
2018-07-28T01:33:29.620Z,991.27
2018-07-28T01:34:29.580Z,991.27
2018-07-28T01:35:29.590Z,991.24
2018-07-28T01:36:29.542Z,991.24
2018-07-28T01:37:29.602Z,991.25
2018-07-28T01:38:29.477Z,991.23
2018-07-28T01:39:29.479Z,991.20
2018-07-28T01:40:29.411Z,991.24
2018-07-28T01:41:29.397Z,991.24
2018-07-28T01:42:29.393Z,991.21
2018-07-28T01:43:29.428Z,991.23
2018-07-28T01:44:29.324Z,991.25
2018-07-28T01:45:29.288Z,991.23
2018-07-28T01:46:29.238Z,991.26
2018-07-28T01:47:29.264Z,991.25
2018-07-28T01:48:29.292Z,991.30
2018-07-28T01:49:29.220Z,991.30
2018-07-28T01:50:29.174Z,991.31
2018-07-28T01:51:29.319Z,991.33
2018-07-28T01:52:29.127Z,991.30
2018-07-28T01:53:29.137Z,991.29
2018-07-28T01:54:29.167Z,991.23
2018-07-28T01:55:29.029Z,991.23
2018-07-28T01:56:29.007Z,991.21
2018-07-28T01:57:28.987Z,991.22
2018-07-28T01:58:28.949Z,991.24
2018-07-28T01:59:29.046Z,991.28
2018-07-28T02:00:28.893Z,991.30
2018-07-28T02:01:28.873Z,991.28
2018-07-28T02:02:28.816Z,991.29
2018-07-28T02:03:28.820Z,991.22
2018-07-28T02:04:29.506Z,991.21
2018-07-28T02:05:29.290Z,991.16
2018-07-28T02:06:29.290Z,991.22
2018-07-28T02:07:28.704Z,991.26
2018-07-28T02:08:28.707Z,991.33
2018-07-28T02:09:29.370Z,991.35
2018-07-28T02:10:28.660Z,991.37
2018-07-28T02:11:28.622Z,991.38
2018-07-28T02:12:29.139Z,991.36
2018-07-28T02:13:28.543Z,991.37
2018-07-28T02:14:29.162Z,991.39
2018-07-28T02:15:28.490Z,991.39
2018-07-28T02:16:28.717Z,991.40
2018-07-28T02:17:28.424Z,991.43
2018-07-28T02:18:28.404Z,991.46
2018-07-28T02:19:28.365Z,991.46
2018-07-28T02:20:28.544Z,991.45
2018-07-28T02:21:28.362Z,991.44
2018-07-28T02:22:28.880Z,991.44
2018-07-28T02:23:28.303Z,991.49
2018-07-28T02:24:28.254Z,991.53
2018-07-28T02:25:28.256Z,991.50
2018-07-28T02:26:28.851Z,991.50
2018-07-28T02:27:28.548Z,991.51
2018-07-28T02:28:28.145Z,991.51
2018-07-28T02:29:28.127Z,991.48
2018-07-28T02:30:28.093Z,991.48
2018-07-28T02:31:28.148Z,991.48
2018-07-28T02:32:28.066Z,991.49
2018-07-28T02:33:28.558Z,991.49
2018-07-28T02:34:27.974Z,991.50
2018-07-28T02:35:28.515Z,991.47
2018-07-28T02:36:28.589Z,991.46
2018-07-28T02:37:27.918Z,991.45
2018-07-28T02:38:27.871Z,991.47
2018-07-28T02:39:28.408Z,991.46
2018-07-28T02:40:27.824Z,991.44
2018-07-28T02:41:28.505Z,991.46
2018-07-28T02:42:27.759Z,991.48
2018-07-28T02:43:27.728Z,991.45
2018-07-28T02:44:27.702Z,991.43
2018-07-28T02:45:27.701Z,991.41
2018-07-28T02:46:27.772Z,991.40
2018-07-28T02:47:27.639Z,991.41
2018-07-28T02:48:27.600Z,991.39
2018-07-28T02:49:27.588Z,991.39
2018-07-28T02:50:27.585Z,991.35
2018-07-28T02:51:27.652Z,991.40
2018-07-28T02:52:27.484Z,991.40
2018-07-28T02:53:27.509Z,991.39
2018-07-28T02:54:27.440Z,991.41
2018-07-28T02:55:27.450Z,991.42
2018-07-28T02:56:27.392Z,991.39
2018-07-28T02:57:27.524Z,991.41
2018-07-28T02:58:27.339Z,991.44
2018-07-28T02:59:27.325Z,991.45
2018-07-28T03:00:27.322Z,991.45
2018-07-28T03:01:27.804Z,991.42
2018-07-28T03:02:27.261Z,991.45
2018-07-28T03:04:27.247Z,991.43
2018-07-28T03:05:27.148Z,991.44
2018-07-28T03:06:27.165Z,991.43
2018-07-28T03:07:27.127Z,991.46
2018-07-28T03:08:27.120Z,991.47
2018-07-28T03:09:27.039Z,991.47
2018-07-28T03:10:27.052Z,991.43
2018-07-28T03:11:27.008Z,991.45
2018-07-28T03:12:26.972Z,991.47
2018-07-28T03:13:27.592Z,991.46
2018-07-28T03:14:26.937Z,991.44
2018-07-28T03:15:26.892Z,991.42
2018-07-28T03:16:26.877Z,991.44
2018-07-28T03:17:26.856Z,991.38
2018-07-28T03:18:27.478Z,991.41
2018-07-28T03:19:26.764Z,991.39
2018-07-28T03:20:26.777Z,991.43
2018-07-28T03:21:26.730Z,991.42
2018-07-28T03:22:26.736Z,991.40
2018-07-28T03:23:26.765Z,991.42
2018-07-28T03:24:26.642Z,991.44
2018-07-28T03:25:26.627Z,991.44
2018-07-28T03:26:26.598Z,991.44
2018-07-28T03:27:26.598Z,991.46
2018-07-28T03:28:26.634Z,991.46
2018-07-28T03:29:26.718Z,991.42
2018-07-28T03:30:26.507Z,991.41
2018-07-28T03:31:26.478Z,991.40
2018-07-28T03:32:26.421Z,991.41
2018-07-28T03:33:26.384Z,991.37
2018-07-28T03:34:26.484Z,991.37
2018-07-28T03:35:26.366Z,991.29
2018-07-28T03:36:26.314Z,991.31
2018-07-28T03:37:26.308Z,991.30
2018-07-28T03:38:26.278Z,991.29
2018-07-28T03:39:26.379Z,991.27
2018-07-28T03:40:26.213Z,991.31
2018-07-28T03:41:26.264Z,991.31
2018-07-28T03:42:26.158Z,991.32
2018-07-28T03:43:26.159Z,991.34
2018-07-28T03:44:26.233Z,991.37
2018-07-28T03:45:26.095Z,991.35
2018-07-28T03:46:26.122Z,991.35
2018-07-28T03:47:26.027Z,991.37
2018-07-28T03:48:26.014Z,991.36
2018-07-28T03:49:26.616Z,991.34
2018-07-28T03:50:25.952Z,991.31
2018-07-28T03:51:25.915Z,991.36
2018-07-28T03:52:25.932Z,991.30
2018-07-28T03:53:25.872Z,991.28
2018-07-28T03:54:25.946Z,991.24
2018-07-28T03:55:25.826Z,991.26
2018-07-28T03:56:25.773Z,991.23
2018-07-28T03:57:25.788Z,991.19
2018-07-28T03:58:25.711Z,991.20
2018-07-28T03:59:25.844Z,991.15
2018-07-28T04:00:25.661Z,991.14
2018-07-28T04:01:25.684Z,991.12
2018-07-28T04:02:25.600Z,991.11
2018-07-28T04:03:25.570Z,991.12
2018-07-28T04:04:25.708Z,991.12
2018-07-28T04:05:25.556Z,991.10
2018-07-28T04:06:25.522Z,991.11
2018-07-28T04:07:25.482Z,991.09
2018-07-28T04:08:25.505Z,991.09
2018-07-28T04:09:25.520Z,991.12
2018-07-28T04:10:25.500Z,991.07
2018-07-28T04:11:25.380Z,991.08
2018-07-28T04:12:25.340Z,991.08
2018-07-28T04:13:25.310Z,991.08
2018-07-28T04:14:25.366Z,991.11
2018-07-28T04:15:25.407Z,991.10
2018-07-28T04:16:25.224Z,991.08
2018-07-28T04:17:25.202Z,991.09
2018-07-28T04:18:25.193Z,991.08
2018-07-28T04:19:25.151Z,991.04
2018-07-28T04:20:25.242Z,991.05
2018-07-28T04:21:25.091Z,991.05
2018-07-28T04:22:25.065Z,991.08
2018-07-28T04:23:25.094Z,991.06
2018-07-28T04:24:25.012Z,991.04
2018-07-28T04:25:25.105Z,991.01
2018-07-28T04:26:24.966Z,990.98
2018-07-28T04:27:24.980Z,990.99
2018-07-28T04:28:24.998Z,990.99
2018-07-28T04:29:24.903Z,990.95
2018-07-28T04:30:24.973Z,990.93
2018-07-28T04:31:24.855Z,990.87
2018-07-28T04:32:24.819Z,990.83
2018-07-28T04:33:24.793Z,990.77
2018-07-28T04:34:24.786Z,990.76
2018-07-28T04:35:24.813Z,990.74
2018-07-28T04:36:24.699Z,990.73
2018-07-28T04:37:24.694Z,990.70
2018-07-28T04:38:24.683Z,990.69
2018-07-28T04:39:24.612Z,990.70
2018-07-28T04:40:24.591Z,990.71
2018-07-28T04:41:24.656Z,990.68
2018-07-28T04:42:24.574Z,990.69
2018-07-28T04:43:24.501Z,990.71
2018-07-28T04:44:24.564Z,990.67
2018-07-28T04:45:24.512Z,990.66
2018-07-28T04:46:24.452Z,990.68
2018-07-28T04:47:24.508Z,990.66
2018-07-28T04:48:24.384Z,990.67
2018-07-28T04:49:24.387Z,990.60
2018-07-28T04:50:24.356Z,990.59
2018-07-28T04:51:24.294Z,990.54
2018-07-28T04:52:24.394Z,990.52
2018-07-28T04:53:24.224Z,990.50
2018-07-28T04:54:24.256Z,990.49
2018-07-28T04:55:24.173Z,990.49
2018-07-28T04:56:24.180Z,990.51
2018-07-28T04:57:24.230Z,990.47
2018-07-28T04:58:24.138Z,990.48
2018-07-28T04:59:24.063Z,990.46
2018-07-28T05:00:24.050Z,990.44
2018-07-28T05:01:24.020Z,990.43
2018-07-28T05:02:24.034Z,990.41
2018-07-28T05:03:23.966Z,990.41
2018-07-28T05:04:23.952Z,990.45
2018-07-28T05:05:23.942Z,990.41
2018-07-28T05:06:23.875Z,990.39
2018-07-28T05:07:24.018Z,990.44
2018-07-28T05:08:23.871Z,990.39
2018-07-28T05:09:23.792Z,990.38
2018-07-28T05:10:23.768Z,990.40
2018-07-28T05:11:23.874Z,990.36
2018-07-28T05:12:23.829Z,990.40
2018-07-28T05:13:23.737Z,990.38
2018-07-28T05:14:23.657Z,990.37
2018-07-28T05:15:23.804Z,990.39
2018-07-28T05:16:23.608Z,990.35
2018-07-28T05:17:23.623Z,990.34
2018-07-28T05:18:23.666Z,990.35
2018-07-28T05:19:23.573Z,990.31
2018-07-28T05:20:23.524Z,990.29
2018-07-28T05:21:23.476Z,990.27
2018-07-28T05:22:23.566Z,990.28
2018-07-28T05:23:23.427Z,990.27
2018-07-28T05:24:23.504Z,990.23
2018-07-28T05:25:23.379Z,990.25
2018-07-28T05:26:23.364Z,990.23
2018-07-28T05:27:23.328Z,990.20
2018-07-28T05:28:23.287Z,990.18
2018-07-28T05:29:23.284Z,990.18
2018-07-28T05:30:23.341Z,990.14
2018-07-28T05:31:23.214Z,990.17
2018-07-28T05:32:23.173Z,990.18
2018-07-28T05:33:23.141Z,990.16
2018-07-28T05:34:23.139Z,990.18
2018-07-28T05:35:23.190Z,990.18
2018-07-28T05:36:23.074Z,990.19
2018-07-28T05:37:23.051Z,990.17
2018-07-28T05:38:23.133Z,990.13
2018-07-28T05:39:23.000Z,990.13
2018-07-28T05:40:23.011Z,990.13
2018-07-28T05:41:22.947Z,990.12
2018-07-28T05:42:22.922Z,990.10
2018-07-28T05:43:22.884Z,990.08
2018-07-28T05:44:22.836Z,990.02
2018-07-28T05:45:22.922Z,990.03
2018-07-28T05:46:22.808Z,990.01
2018-07-28T05:47:22.773Z,989.99
2018-07-28T05:48:22.760Z,989.94
2018-07-28T05:49:22.753Z,990.00
2018-07-28T05:50:22.782Z,989.94
2018-07-28T05:51:22.774Z,989.94
2018-07-28T05:52:22.628Z,989.89
2018-07-28T05:53:22.652Z,989.89
2018-07-28T05:54:22.595Z,989.90
2018-07-28T05:55:22.556Z,989.88
2018-07-28T05:56:22.618Z,989.83
2018-07-28T05:57:22.506Z,989.80
2018-07-28T05:58:22.474Z,989.74
2018-07-28T05:59:22.485Z,989.77
2018-07-28T06:00:22.435Z,989.73
2018-07-28T06:01:22.406Z,989.70
2018-07-28T06:02:22.548Z,989.68
2018-07-28T06:03:22.347Z,989.65
2018-07-28T06:04:22.307Z,989.68
2018-07-28T06:05:22.288Z,989.63
2018-07-28T06:06:22.260Z,989.65
2018-07-28T06:07:22.342Z,989.65
2018-07-28T06:08:22.208Z,989.69
2018-07-28T06:09:22.182Z,989.70
2018-07-28T06:10:22.152Z,989.72
2018-07-28T06:11:22.185Z,989.74
2018-07-28T06:12:22.190Z,989.74
2018-07-28T06:13:22.076Z,989.74
2018-07-28T06:14:22.076Z,989.73
2018-07-28T06:15:22.025Z,989.73
2018-07-28T06:16:21.973Z,989.73
2018-07-28T06:17:22.027Z,989.72
2018-07-28T06:18:21.929Z,989.72
2018-07-28T06:19:21.919Z,989.71
2018-07-28T06:20:21.916Z,989.71
2018-07-28T06:21:21.870Z,989.71
2018-07-28T06:22:21.858Z,989.72
2018-07-28T06:23:21.899Z,989.71
2018-07-28T06:24:21.798Z,989.69
2018-07-28T06:25:21.781Z,989.69
2018-07-28T06:26:21.719Z,989.73
2018-07-28T06:27:21.702Z,989.73
2018-07-28T06:28:21.663Z,989.72
2018-07-28T06:29:21.705Z,989.75
2018-07-28T06:30:21.604Z,989.71
2018-07-28T06:31:21.590Z,989.73
2018-07-28T06:32:21.537Z,989.77
2018-07-28T06:33:21.534Z,989.76
2018-07-28T06:34:21.630Z,989.74
2018-07-28T06:35:21.504Z,989.76
2018-07-28T06:36:21.483Z,989.72
2018-07-28T06:37:21.448Z,989.74
2018-07-28T06:38:21.391Z,989.74
2018-07-28T06:39:21.349Z,989.77
2018-07-28T06:40:21.441Z,989.76
2018-07-28T06:41:21.340Z,989.74
2018-07-28T06:42:21.317Z,989.78
2018-07-28T06:43:21.248Z,989.77
2018-07-28T06:44:21.225Z,989.76
2018-07-28T06:45:21.290Z,989.78
2018-07-28T06:46:21.237Z,989.80
2018-07-28T06:47:21.192Z,989.80
2018-07-28T06:48:21.102Z,989.82
2018-07-28T06:49:21.103Z,989.85
2018-07-28T06:50:21.168Z,989.86
2018-07-28T06:51:21.066Z,989.85
2018-07-28T06:52:21.029Z,989.86
2018-07-28T06:53:20.970Z,989.85
2018-07-28T06:54:20.943Z,989.88
2018-07-28T06:55:20.924Z,989.88
2018-07-28T06:56:20.943Z,989.93
2018-07-28T06:57:20.879Z,989.90
2018-07-28T06:58:20.877Z,989.90
2018-07-28T06:59:20.813Z,989.93
2018-07-28T07:00:20.784Z,989.90
2018-07-28T07:01:20.763Z,989.94
2018-07-28T07:02:20.899Z,989.93
2018-07-28T07:03:20.700Z,989.92
2018-07-28T07:04:20.672Z,989.95
2018-07-28T07:05:20.644Z,989.96
2018-07-28T07:06:20.697Z,989.99
2018-07-28T07:07:20.672Z,990.01
2018-07-28T07:08:20.566Z,989.99
2018-07-28T07:09:20.535Z,989.98
2018-07-28T07:10:20.532Z,990.01
2018-07-28T07:11:20.492Z,990.03
2018-07-28T07:12:20.463Z,990.04
2018-07-28T07:13:20.574Z,990.02
2018-07-28T07:14:20.404Z,990.04
2018-07-28T07:15:20.471Z,990.03
2018-07-28T07:16:20.364Z,990.03
2018-07-28T07:17:20.335Z,990.04
2018-07-28T07:18:20.298Z,990.01
2018-07-28T07:19:20.342Z,990.00
2018-07-28T07:20:20.251Z,990.03
2018-07-28T07:21:20.318Z,990.04
2018-07-28T07:22:20.195Z,990.04
2018-07-28T07:23:20.165Z,990.04
2018-07-28T07:24:20.237Z,990.07
2018-07-28T07:25:20.117Z,990.06
2018-07-28T07:26:20.088Z,990.08
2018-07-28T07:27:20.042Z,990.05
2018-07-28T07:28:20.012Z,990.08
2018-07-28T07:29:20.140Z,990.08
2018-07-28T07:30:20.079Z,990.09
2018-07-28T07:31:19.929Z,990.08
2018-07-28T07:32:19.901Z,990.08
2018-07-28T07:33:19.898Z,990.08
2018-07-28T07:34:19.895Z,990.10
2018-07-28T07:35:19.847Z,990.09
2018-07-28T07:36:19.898Z,990.08
2018-07-28T07:37:19.788Z,990.12
2018-07-28T07:38:19.738Z,990.11
2018-07-28T07:39:19.710Z,990.11
2018-07-28T07:40:19.717Z,990.17
2018-07-28T07:41:19.774Z,990.14
2018-07-28T07:42:19.639Z,990.12
2018-07-28T07:43:19.602Z,990.14
2018-07-28T07:44:19.589Z,990.16
2018-07-28T07:45:19.554Z,990.15
2018-07-28T07:46:19.622Z,990.16
2018-07-28T07:47:19.627Z,990.14
2018-07-28T07:48:19.476Z,990.15
2018-07-28T07:49:19.454Z,990.12
2018-07-28T07:50:19.428Z,990.15
2018-07-28T07:51:19.438Z,990.15
2018-07-28T07:52:19.422Z,990.15
2018-07-28T07:53:19.326Z,990.16
2018-07-28T07:54:19.334Z,990.18
2018-07-28T07:55:19.324Z,990.18
2018-07-28T07:56:19.256Z,990.16
2018-07-28T07:57:19.279Z,990.19
2018-07-28T07:58:19.239Z,990.18
2018-07-28T07:59:19.172Z,990.20
2018-07-28T08:00:19.192Z,990.18
2018-07-28T08:01:19.163Z,990.17
2018-07-28T08:02:19.189Z,990.20
2018-07-28T08:03:19.088Z,990.19
2018-07-28T08:04:19.053Z,990.23
2018-07-28T08:05:19.036Z,990.19
2018-07-28T08:06:19.030Z,990.21
2018-07-28T08:07:18.983Z,990.21
2018-07-28T08:08:19.057Z,990.19
2018-07-28T08:09:18.914Z,990.19
2018-07-28T08:10:18.871Z,990.15
2018-07-28T08:11:18.858Z,990.17
2018-07-28T08:12:18.837Z,990.17
2018-07-28T08:13:18.888Z,990.18
2018-07-28T08:14:18.773Z,990.19
2018-07-28T08:15:18.759Z,990.17
2018-07-28T08:16:18.718Z,990.17
2018-07-28T08:17:18.699Z,990.17
2018-07-28T08:18:18.775Z,990.16
2018-07-28T08:19:18.683Z,990.17
2018-07-28T08:20:18.620Z,990.17
2018-07-28T08:21:18.583Z,990.15
2018-07-28T08:22:18.558Z,990.14
2018-07-28T08:23:18.620Z,990.16
2018-07-28T08:24:18.493Z,990.14
2018-07-28T08:25:18.491Z,990.15
2018-07-28T08:26:18.441Z,990.15
2018-07-28T08:27:18.427Z,990.19
2018-07-28T08:28:18.382Z,990.17
2018-07-28T08:29:18.457Z,990.20
2018-07-28T08:30:18.327Z,990.17
2018-07-28T08:31:18.350Z,990.20
2018-07-28T08:32:18.276Z,990.20
2018-07-28T08:33:18.352Z,990.21
2018-07-28T08:34:18.227Z,990.21
2018-07-28T08:35:18.324Z,990.21
2018-07-28T08:36:18.179Z,990.20
2018-07-28T08:37:18.150Z,990.21
2018-07-28T08:38:18.109Z,990.23
2018-07-28T08:39:18.135Z,990.23
2018-07-28T08:40:18.095Z,990.26
2018-07-28T08:41:18.120Z,990.22
2018-07-28T08:42:18.017Z,990.25
2018-07-28T08:43:17.969Z,990.26
2018-07-28T08:44:17.945Z,990.26
2018-07-28T08:45:17.925Z,990.22
2018-07-28T08:46:18.023Z,990.20
2018-07-28T08:47:17.915Z,990.19
2018-07-28T08:48:17.841Z,990.15
2018-07-28T08:49:17.958Z,990.19
2018-07-28T08:50:17.802Z,990.15
2018-07-28T08:51:17.915Z,990.14
2018-07-28T08:52:17.742Z,990.15
2018-07-28T08:53:17.707Z,990.14
2018-07-28T08:54:17.726Z,990.11
2018-07-28T08:55:17.672Z,990.13
2018-07-28T08:56:17.717Z,990.09
2018-07-28T08:57:17.612Z,990.10
2018-07-28T08:58:17.590Z,990.09
2018-07-28T08:59:17.569Z,990.08
2018-07-28T09:00:17.552Z,990.11
2018-07-28T09:01:17.583Z,990.08
2018-07-28T09:02:17.519Z,990.04
2018-07-28T09:03:17.435Z,990.07
2018-07-28T09:04:17.411Z,990.03
2018-07-28T09:05:17.431Z,990.04
2018-07-28T09:06:17.356Z,990.08
2018-07-28T09:07:17.425Z,990.06
2018-07-28T09:08:17.318Z,990.02
2018-07-28T09:09:17.266Z,990.02
2018-07-28T09:10:17.268Z,989.97
2018-07-28T09:11:17.239Z,989.98
2018-07-28T09:12:17.221Z,989.93
2018-07-28T09:13:17.232Z,989.93
2018-07-28T09:14:17.148Z,989.95
2018-07-28T09:15:17.112Z,989.94
2018-07-28T09:16:17.096Z,989.95
2018-07-28T09:17:17.085Z,989.92
2018-07-28T09:18:17.091Z,989.91
2018-07-28T09:19:16.999Z,989.90
2018-07-28T09:20:16.996Z,989.92
2018-07-28T09:21:16.965Z,989.90
2018-07-28T09:22:16.933Z,989.87
2018-07-28T09:23:17.111Z,989.89
2018-07-28T09:24:16.870Z,989.86
2018-07-28T09:25:16.866Z,989.87
2018-07-28T09:26:16.819Z,989.84
2018-07-28T09:27:16.806Z,989.88
2018-07-28T09:28:16.824Z,989.86
2018-07-28T09:29:16.730Z,989.85
2018-07-28T09:30:16.720Z,989.85
2018-07-28T09:31:16.696Z,989.85
2018-07-28T09:32:16.678Z,989.84
2018-07-28T09:33:16.732Z,989.80
2018-07-28T09:34:16.597Z,989.80
2018-07-28T09:35:16.604Z,989.84
2018-07-28T09:36:16.553Z,989.81
2018-07-28T09:37:16.516Z,989.82
2018-07-28T09:38:16.584Z,989.84
2018-07-28T09:39:16.474Z,989.83
2018-07-28T09:40:16.446Z,989.86
2018-07-28T09:41:16.404Z,989.85
2018-07-28T09:42:16.389Z,989.84
2018-07-28T09:43:16.381Z,989.86
2018-07-28T09:44:16.391Z,989.88
2018-07-28T09:45:16.320Z,989.87
2018-07-28T09:46:16.314Z,989.88
2018-07-28T09:47:16.246Z,989.86
2018-07-28T09:48:16.242Z,989.83
2018-07-28T09:49:16.202Z,989.84
2018-07-28T09:50:16.261Z,989.86
2018-07-28T09:51:16.133Z,989.85
2018-07-28T09:52:16.105Z,989.85
2018-07-28T09:53:16.076Z,989.84
2018-07-28T09:54:16.065Z,989.87
2018-07-28T09:55:16.126Z,989.86
2018-07-28T09:56:16.078Z,989.86
2018-07-28T09:57:15.973Z,989.90
2018-07-28T09:58:15.965Z,989.84
2018-07-28T09:59:15.928Z,989.81
2018-07-28T10:00:16.011Z,989.81
2018-07-28T10:01:15.876Z,989.83
2018-07-28T10:02:15.855Z,989.82
2018-07-28T10:03:15.853Z,989.83
2018-07-28T10:04:15.795Z,989.83
2018-07-28T10:05:15.816Z,989.85
2018-07-28T10:06:15.727Z,989.81
2018-07-28T10:07:15.707Z,989.86
2018-07-28T10:08:15.682Z,989.87
2018-07-28T10:09:15.669Z,989.89
2018-07-28T10:10:15.739Z,989.88
2018-07-28T10:11:15.581Z,989.90
2018-07-28T10:12:15.573Z,989.90
2018-07-28T10:13:15.542Z,989.88
2018-07-28T10:14:15.524Z,989.85
2018-07-28T10:15:15.594Z,989.90
2018-07-28T10:16:15.509Z,989.87
2018-07-28T10:17:15.429Z,989.86
2018-07-28T10:18:15.403Z,989.87
2018-07-28T10:19:15.378Z,989.91
2018-07-28T10:20:15.358Z,989.89
2018-07-28T10:21:15.364Z,989.89
2018-07-28T10:22:15.299Z,989.93
2018-07-28T10:23:15.259Z,989.94
2018-07-28T10:24:15.279Z,989.96
2018-07-28T10:25:15.232Z,989.96
2018-07-28T10:26:15.285Z,989.97
2018-07-28T10:27:15.195Z,990.02
2018-07-28T10:28:15.141Z,990.04
2018-07-28T10:29:15.144Z,990.00
2018-07-28T10:30:15.212Z,990.00
2018-07-28T10:31:15.143Z,990.01
2018-07-28T10:32:15.013Z,990.03
2018-07-28T10:33:14.993Z,990.08
2018-07-28T10:34:15.002Z,990.06
2018-07-28T10:35:14.933Z,990.11
2018-07-28T10:36:15.017Z,990.09
2018-07-28T10:37:14.912Z,990.13
2018-07-28T10:38:14.856Z,990.15
2018-07-28T10:39:14.844Z,990.14
2018-07-28T10:40:14.778Z,990.16
2018-07-28T10:41:14.889Z,990.17
2018-07-28T10:42:14.762Z,990.15
2018-07-28T10:43:14.735Z,990.17
2018-07-28T10:44:14.726Z,990.16
2018-07-28T10:45:14.660Z,990.18
2018-07-28T10:46:14.728Z,990.20
2018-07-28T10:47:14.609Z,990.18
2018-07-28T10:48:14.594Z,990.17
2018-07-28T10:49:14.579Z,990.18
2018-07-28T10:50:14.527Z,990.17
2018-07-28T10:51:14.598Z,990.21
2018-07-28T10:52:14.488Z,990.22
2018-07-28T10:53:14.441Z,990.22
2018-07-28T10:54:14.410Z,990.24
2018-07-28T10:55:14.412Z,990.24
2018-07-28T10:56:14.397Z,990.28
2018-07-28T10:57:14.449Z,990.28
2018-07-28T10:58:14.370Z,990.30
2018-07-28T10:59:14.309Z,990.26
2018-07-28T11:00:14.428Z,990.29
2018-07-28T11:01:14.239Z,990.33
2018-07-28T11:02:14.293Z,990.30
2018-07-28T11:03:14.180Z,990.35
2018-07-28T11:04:14.160Z,990.42
2018-07-28T11:05:14.119Z,990.38
2018-07-28T11:06:14.100Z,990.36
2018-07-28T11:07:14.170Z,990.36
2018-07-28T11:08:14.025Z,990.38
2018-07-28T11:09:14.179Z,990.35
2018-07-28T11:10:13.982Z,990.37
2018-07-28T11:11:13.957Z,990.36
2018-07-28T11:12:14.062Z,990.38
2018-07-28T11:13:13.916Z,990.39
2018-07-28T11:14:13.883Z,990.36
2018-07-28T11:15:13.861Z,990.38
2018-07-28T11:16:13.843Z,990.34
2018-07-28T11:17:13.931Z,990.36
2018-07-28T11:18:13.775Z,990.34
2018-07-28T11:19:13.755Z,990.32
2018-07-28T11:20:13.752Z,990.35
2018-07-28T11:21:13.695Z,990.29
2018-07-28T11:22:13.715Z,990.28
2018-07-28T11:23:13.627Z,990.28
2018-07-28T11:24:13.611Z,990.30
2018-07-28T11:25:13.564Z,990.32
2018-07-28T11:26:13.595Z,990.32
2018-07-28T11:27:13.527Z,990.32
2018-07-28T11:28:13.615Z,990.35
2018-07-28T11:29:13.506Z,990.30
2018-07-28T11:30:13.449Z,990.31
2018-07-28T11:31:13.408Z,990.31
2018-07-28T11:32:13.398Z,990.32
2018-07-28T11:33:13.399Z,990.37
2018-07-28T11:34:13.439Z,990.40
2018-07-28T11:35:13.301Z,990.36
2018-07-28T11:36:13.301Z,990.40
2018-07-28T11:37:13.241Z,990.44
2018-07-28T11:38:13.240Z,990.45
2018-07-28T11:39:13.311Z,990.45
2018-07-28T11:40:13.207Z,990.51
2018-07-28T11:41:13.138Z,990.50
2018-07-28T11:42:13.158Z,990.53
2018-07-28T11:43:13.128Z,990.55
2018-07-28T11:44:13.165Z,990.58
2018-07-28T11:45:13.038Z,990.57
2018-07-28T11:46:13.011Z,990.60
2018-07-28T11:47:12.995Z,990.61
2018-07-28T11:48:13.016Z,990.63
2018-07-28T11:49:13.056Z,990.64
2018-07-28T11:50:12.881Z,990.65
2018-07-28T11:51:12.888Z,990.64
2018-07-28T11:52:12.870Z,990.66
2018-07-28T11:53:12.818Z,990.64
2018-07-28T11:54:13.238Z,990.68
2018-07-28T11:55:12.746Z,990.68
2018-07-28T11:56:12.733Z,990.65
2018-07-28T11:57:12.707Z,990.70
2018-07-28T11:58:12.740Z,990.62
2018-07-28T11:59:12.657Z,990.63
2018-07-28T12:00:12.708Z,990.65
2018-07-28T12:01:12.611Z,990.60
2018-07-28T12:02:12.573Z,990.60
2018-07-28T12:03:12.543Z,990.60
2018-07-28T12:04:12.520Z,990.59
2018-07-28T12:05:12.513Z,990.59
2018-07-28T12:06:12.555Z,990.64
2018-07-28T12:07:12.435Z,990.63
2018-07-28T12:08:12.418Z,990.64
2018-07-28T12:09:12.401Z,990.68
2018-07-28T12:10:12.447Z,990.67
2018-07-28T12:11:12.404Z,990.68
2018-07-28T12:12:12.440Z,990.69
2018-07-28T12:13:12.341Z,990.72
2018-07-28T12:14:12.328Z,990.73
2018-07-28T12:15:12.210Z,990.76
2018-07-28T12:16:12.154Z,990.76
2018-07-28T12:17:12.270Z,990.79
2018-07-28T12:18:12.173Z,990.79
2018-07-28T12:19:12.149Z,990.78
2018-07-28T12:20:12.069Z,990.81
2018-07-28T12:21:12.080Z,990.81
2018-07-28T12:22:12.109Z,990.83
2018-07-28T12:23:13.822Z,990.86
2018-07-28T12:24:13.343Z,990.84
2018-07-28T12:25:13.037Z,990.89
2018-07-28T12:26:13.390Z,990.92
2018-07-28T12:27:11.949Z,990.93
2018-07-28T12:28:11.871Z,991.00
2018-07-28T12:29:11.869Z,991.03